Time;durP1;ratioP1;P1;durP2;ratioP2;P2;SDS_P1;SDS_P2;PMS_P1;PMS_P2;Temp;Humidity;BMP_temperature;BMP_pressure;BME280_temperature;BME280_humidity;BME280_pressure;Samples;Min_cycle;Max_cycle;Signal;HPM_P1;HPM_P2
2023/09/24 00:02:13;;;;;;;7.30;1.98;;;13.10;99.90;;;;;;5044414;28;20041;-75
2023/09/24 00:04:42;;;;;;;7.03;1.70;;;13.10;99.90;;;;;;5050044;28;20055;-75
2023/09/24 00:07:08;;;;;;;6.68;2.33;;;13.10;99.90;;;;;;5030931;28;20045;-75
2023/09/24 00:09:35;;;;;;;4.28;1.65;;;13.10;99.90;;;;;;5046311;28;20080;-75
2023/09/24 00:12:01;;;;;;;7.88;2.05;;;13.10;99.90;;;;;;5044132;28;20619;-75
2023/09/24 00:14:27;;;;;;;5.82;1.98;;;13.10;99.90;;;;;;5048904;28;20089;-76
2023/09/24 00:16:53;;;;;;;6.75;2.03;;;13.10;99.90;;;;;;5048119;28;20056;-75
2023/09/24 00:19:24;;;;;;;9.07;2.72;;;13.10;99.90;;;;;;5042949;28;20053;-77
2023/09/24 00:21:51;;;;;;;5.07;1.90;;;13.00;99.90;;;;;;5016776;28;20132;-75
2023/09/24 00:24:17;;;;;;;5.30;1.80;;;13.00;99.90;;;;;;5040706;28;20443;-75
2023/09/24 00:26:43;;;;;;;7.57;2.47;;;13.00;99.90;;;;;;5067296;28;20128;-76
2023/09/24 00:29:10;;;;;;;4.85;1.58;;;13.00;99.90;;;;;;5033307;28;20482;-76
2023/09/24 00:31:37;;;;;;;5.78;2.03;;;12.90;99.90;;;;;;5055859;28;20056;-77
2023/09/24 00:34:06;;;;;;;11.13;2.20;;;12.90;99.90;;;;;;5049946;28;20064;-76
2023/09/24 00:36:35;;;;;;;6.88;2.28;;;12.80;99.90;;;;;;5050449;28;20084;-76
2023/09/24 00:39:01;;;;;;;5.30;1.88;;;12.80;99.90;;;;;;5050372;28;20053;-76
2023/09/24 00:41:28;;;;;;;6.15;1.75;;;12.80;99.90;;;;;;5065973;28;20045;-76
2023/09/24 00:43:57;;;;;;;5.03;1.92;;;12.80;99.90;;;;;;5050216;28;20056;-77
2023/09/24 00:46:23;;;;;;;6.03;1.90;;;12.80;99.90;;;;;;5039319;28;20045;-77
2023/09/24 00:48:51;;;;;;;6.82;1.90;;;12.80;99.90;;;;;;5048740;28;20041;-77
2023/09/24 00:51:22;;;;;;;5.18;1.60;;;12.80;99.90;;;;;;5074918;28;20214;-77
2023/09/24 00:53:49;;;;;;;5.43;1.77;;;12.80;99.90;;;;;;5035457;28;20076;-77
2023/09/24 00:56:15;;;;;;;6.45;1.80;;;12.80;99.90;;;;;;5035291;28;20049;-76
2023/09/24 00:58:46;;;;;;;12.35;2.03;;;12.80;99.90;;;;;;5043555;28;20052;-77
2023/09/24 01:01:12;;;;;;;6.15;2.05;;;12.80;99.90;;;;;;5041526;28;20117;-76
2023/09/24 01:03:40;;;;;;;4.57;1.80;;;12.70;99.90;;;;;;5033786;28;20443;-76
2023/09/24 01:06:06;;;;;;;9.10;2.80;;;12.70;99.90;;;;;;5038940;28;20052;-77
2023/09/24 01:08:33;;;;;;;5.13;2.53;;;12.70;99.90;;;;;;5041319;28;20141;-77
2023/09/24 01:11:00;;;;;;;7.25;1.65;;;12.70;99.90;;;;;;5047953;28;20069;-76
2023/09/24 01:13:37;;;;;;;4.75;1.65;;;12.70;99.90;;;;;;5044446;28;20052;-76
2023/09/24 01:16:04;;;;;;;8.57;1.92;;;12.70;99.90;;;;;;5052803;28;20525;-77
2023/09/24 01:18:31;;;;;;;3.78;1.63;;;12.70;99.90;;;;;;5046054;28;20473;-77
2023/09/24 01:20:57;;;;;;;5.10;1.73;;;12.70;99.90;;;;;;5039264;28;20081;-77
2023/09/24 01:23:23;;;;;;;2.85;1.45;;;12.70;99.90;;;;;;5038331;28;20068;-77
2023/09/24 01:25:48;;;;;;;7.32;1.77;;;12.70;99.90;;;;;;5040053;28;20478;-77
2023/09/24 01:28:14;;;;;;;3.95;1.58;;;12.70;99.90;;;;;;5035862;28;20072;-77
2023/09/24 01:30:40;;;;;;;5.95;2.10;;;12.70;99.90;;;;;;5036139;28;20049;-77
2023/09/24 01:33:06;;;;;;;5.03;1.70;;;12.70;99.90;;;;;;5045146;28;20045;-77
2023/09/24 01:35:34;;;;;;;5.38;1.80;;;12.60;99.90;;;;;;5053025;28;20072;-77
2023/09/24 01:38:04;;;;;;;4.38;2.00;;;12.60;99.90;;;;;;5036409;28;20503;-76
2023/09/24 01:40:33;;;;;;;3.03;1.42;;;12.60;99.90;;;;;;5050118;28;20103;-76
2023/09/24 01:43:00;;;;;;;6.88;2.92;;;12.60;99.90;;;;;;5054215;28;20143;-77
2023/09/24 01:45:28;;;;;;;5.32;2.65;;;12.60;99.90;;;;;;5053421;28;20118;-77
2023/09/24 01:47:57;;;;;;;7.38;2.67;;;12.50;99.90;;;;;;5052556;28;20072;-76
2023/09/24 01:50:28;;;;;;;6.80;2.90;;;12.50;99.90;;;;;;5027284;28;20377;-77
2023/09/24 01:52:58;;;;;;;8.13;2.97;;;12.40;99.90;;;;;;5049728;28;20080;-77
2023/09/24 01:55:28;;;;;;;7.20;2.80;;;12.50;99.90;;;;;;5058181;28;20045;-77
2023/09/24 01:57:55;;;;;;;6.50;3.08;;;12.40;99.90;;;;;;5038274;28;20179;-76
2023/09/24 02:00:23;;;;;;;4.68;1.95;;;12.40;99.90;;;;;;5023050;28;20037;-77
2023/09/24 02:02:51;;;;;;;5.95;2.58;;;12.40;99.90;;;;;;5049960;28;20084;-77
2023/09/24 02:05:19;;;;;;;6.43;3.75;;;12.40;99.90;;;;;;5042970;28;20553;-77
2023/09/24 02:07:45;;;;;;;7.53;4.10;;;12.40;99.90;;;;;;5047623;28;20504;-76
2023/09/24 02:10:13;;;;;;;6.55;3.92;;;12.30;99.90;;;;;;5043169;28;20045;-77
2023/09/24 02:12:39;;;;;;;9.85;4.55;;;12.30;99.90;;;;;;5046968;28;20053;-76
2023/09/24 02:15:27;;;;;;;10.70;4.68;;;12.30;99.90;;;;;;5051086;28;20047;-77
2023/09/24 02:17:53;;;;;;;9.00;5.43;;;12.30;99.90;;;;;;5049406;28;20060;-77
2023/09/24 02:20:31;;;;;;;10.88;6.13;;;12.20;99.90;;;;;;5049579;28;20076;-77
2023/09/24 02:22:59;;;;;;;7.00;3.55;;;12.20;99.90;;;;;;5044830;28;20060;-77
2023/09/24 02:25:26;;;;;;;9.98;5.57;;;12.20;99.90;;;;;;5051593;28;20393;-76
2023/09/24 02:27:53;;;;;;;8.73;5.35;;;12.20;99.90;;;;;;5047372;28;20059;-76
2023/09/24 02:30:20;;;;;;;7.72;3.95;;;12.10;99.90;;;;;;5070139;28;20033;-77
2023/09/24 02:32:46;;;;;;;10.60;5.63;;;12.00;99.90;;;;;;5042471;28;20053;-76
2023/09/24 02:35:13;;;;;;;8.25;5.00;;;12.00;99.90;;;;;;5042081;28;20053;-77
2023/09/24 02:37:48;;;;;;;7.95;4.85;;;12.10;99.90;;;;;;5066970;28;20254;-76
2023/09/24 02:40:21;;;;;;;6.85;4.03;;;12.10;99.90;;;;;;5065112;28;20041;-76
2023/09/24 02:42:50;;;;;;;10.25;5.25;;;12.00;99.90;;;;;;5048127;28;20084;-76
2023/09/24 02:45:15;;;;;;;9.27;5.28;;;12.00;99.90;;;;;;5032973;28;20049;-77
2023/09/24 02:47:42;;;;;;;6.80;3.90;;;12.00;99.90;;;;;;5044733;28;20060;-76
2023/09/24 02:50:08;;;;;;;8.10;4.53;;;12.00;99.90;;;;;;5042459;28;20052;-76
2023/09/24 02:52:35;;;;;;;6.72;4.35;;;12.00;99.90;;;;;;5046535;28;20176;-76
2023/09/24 02:55:03;;;;;;;8.60;4.63;;;12.00;99.90;;;;;;5048183;28;20049;-76
2023/09/24 02:57:29;;;;;;;9.10;4.28;;;11.90;99.90;;;;;;5067667;28;20061;-76
2023/09/24 02:59:57;;;;;;;7.13;3.95;;;12.00;99.90;;;;;;5036658;28;20129;-76
2023/09/24 03:02:23;;;;;;;9.75;4.70;;;11.90;99.90;;;;;;5045482;28;20465;-77
2023/09/24 03:04:50;;;;;;;10.70;4.57;;;11.90;99.90;;;;;;5024426;28;20064;-76
2023/09/24 03:07:15;;;;;;;10.02;4.32;;;11.90;99.90;;;;;;5034048;28;20060;-76
2023/09/24 03:09:41;;;;;;;46.20;5.60;;;11.90;99.90;;;;;;5066334;28;20046;-76
2023/09/24 03:12:07;;;;;;;25.02;5.53;;;11.90;99.90;;;;;;5049334;28;20079;-77
2023/09/24 03:14:33;;;;;;;81.55;6.63;;;11.80;99.90;;;;;;5040145;28;20135;-77
2023/09/24 03:17:02;;;;;;;110.53;9.40;;;11.80;99.90;;;;;;5046213;28;20059;-76
2023/09/24 03:19:28;;;;;;;167.10;9.05;;;11.80;99.90;;;;;;5049231;28;20041;-77
2023/09/24 03:21:54;;;;;;;23.92;6.03;;;11.80;99.90;;;;;;5042661;28;20047;-76
2023/09/24 03:24:20;;;;;;;13.35;3.95;;;11.70;99.90;;;;;;5044893;28;20364;-77
2023/09/24 03:26:47;;;;;;;13.40;4.78;;;11.70;99.90;;;;;;5047430;28;20098;-76
2023/09/24 03:29:14;;;;;;;29.42;6.47;;;11.80;99.90;;;;;;5038263;28;20045;-76
2023/09/24 03:31:41;;;;;;;70.20;6.88;;;11.80;99.90;;;;;;5043750;28;20049;-77
2023/09/24 03:34:07;;;;;;;23.63;5.45;;;11.70;99.90;;;;;;5046280;28;20527;-76
2023/09/24 03:36:33;;;;;;;17.35;4.95;;;11.70;99.90;;;;;;5042427;28;20091;-77
2023/09/24 03:38:59;;;;;;;16.42;5.68;;;11.70;99.90;;;;;;5037754;28;20196;-76
2023/09/24 03:41:24;;;;;;;13.30;4.97;;;11.70;99.90;;;;;;5048503;28;21581;-76
2023/09/24 03:43:50;;;;;;;17.65;5.63;;;11.70;99.90;;;;;;5065656;28;20045;-76
2023/09/24 03:46:18;;;;;;;28.73;6.10;;;11.60;99.90;;;;;;5030441;28;20057;-76
2023/09/24 03:48:43;;;;;;;14.48;5.00;;;11.60;99.90;;;;;;5045529;28;20073;-76
2023/09/24 03:51:10;;;;;;;7.10;4.45;;;11.60;99.90;;;;;;5041381;28;20139;-76
2023/09/24 03:53:36;;;;;;;21.58;5.70;;;11.60;99.90;;;;;;5051235;28;20057;-77
2023/09/24 03:56:01;;;;;;;9.77;5.07;;;11.60;99.90;;;;;;5040016;28;20045;-77
2023/09/24 03:58:27;;;;;;;11.63;5.10;;;11.60;99.90;;;;;;5036763;28;20057;-77
2023/09/24 04:00:53;;;;;;;7.90;4.20;;;11.60;99.90;;;;;;5048707;28;20056;-76
2023/09/24 04:03:19;;;;;;;7.82;4.78;;;11.60;99.90;;;;;;5046154;28;20064;-77
2023/09/24 04:05:48;;;;;;;7.70;4.93;;;11.60;99.90;;;;;;5037143;28;20045;-77
2023/09/24 04:08:14;;;;;;;11.57;6.07;;;11.50;99.90;;;;;;5042449;28;20053;-76
2023/09/24 04:10:43;;;;;;;7.65;4.97;;;11.50;99.90;;;;;;5038236;28;20114;-77
2023/09/24 04:13:08;;;;;;;7.53;5.13;;;11.40;99.90;;;;;;5044143;28;20492;-77
2023/09/24 04:15:34;;;;;;;7.03;4.53;;;11.50;99.90;;;;;;5018806;28;20053;-75
2023/09/24 04:18:00;;;;;;;7.25;4.93;;;11.40;99.90;;;;;;5025438;28;20045;-76
2023/09/24 04:20:31;;;;;;;10.13;5.78;;;11.40;99.90;;;;;;5035055;28;20056;-75
2023/09/24 04:22:57;;;;;;;9.27;5.53;;;11.50;99.90;;;;;;5051618;28;20395;-75
2023/09/24 04:25:26;;;;;;;10.07;5.38;;;11.40;99.90;;;;;;5045239;28;20048;-75
2023/09/24 04:27:51;;;;;;;7.88;4.95;;;11.40;99.90;;;;;;5041257;28;20041;-76
2023/09/24 04:30:17;;;;;;;7.90;4.90;;;11.40;99.90;;;;;;5046118;28;20041;-75
2023/09/24 04:32:53;;;;;;;8.80;6.15;;;11.40;99.90;;;;;;5050635;28;20049;-75
2023/09/24 04:35:19;;;;;;;11.73;7.07;;;11.30;99.90;;;;;;5052407;28;20393;-75
2023/09/24 04:37:49;;;;;;;9.15;5.85;;;11.30;99.90;;;;;;5053078;28;20408;-75
2023/09/24 04:40:15;;;;;;;7.85;5.32;;;11.30;99.90;;;;;;5051891;28;20045;-75
2023/09/24 04:42:41;;;;;;;10.60;5.57;;;11.30;99.90;;;;;;5051850;28;20053;-75
2023/09/24 04:45:10;;;;;;;10.43;5.95;;;11.30;99.90;;;;;;5047534;28;20114;-76
2023/09/24 04:47:36;;;;;;;12.20;5.90;;;11.30;99.90;;;;;;5053133;28;20095;-76
2023/09/24 04:50:02;;;;;;;10.75;6.00;;;11.30;99.90;;;;;;5052862;28;20055;-75
2023/09/24 04:52:29;;;;;;;9.40;5.93;;;11.30;99.90;;;;;;5045349;28;20400;-75
2023/09/24 04:54:54;;;;;;;10.50;5.45;;;11.30;99.90;;;;;;5046586;28;20037;-75
2023/09/24 04:57:20;;;;;;;11.27;5.72;;;11.20;99.90;;;;;;5032902;28;20119;-76
2023/09/24 04:59:47;;;;;;;9.57;5.85;;;11.20;99.90;;;;;;5048703;28;20752;-75
2023/09/24 05:02:12;;;;;;;14.38;6.22;;;11.20;99.90;;;;;;5052364;28;20056;-76
2023/09/24 05:04:38;;;;;;;9.10;5.82;;;11.20;99.90;;;;;;5056112;28;20052;-76
2023/09/24 05:07:04;;;;;;;9.05;6.30;;;11.10;99.90;;;;;;5041467;28;20477;-75
2023/09/24 05:09:31;;;;;;;9.80;5.53;;;11.10;99.90;;;;;;5033811;28;20087;-77
2023/09/24 05:11:56;;;;;;;13.18;6.32;;;11.10;99.90;;;;;;5070889;28;20469;-76
2023/09/24 05:14:22;;;;;;;14.23;6.88;;;11.10;99.90;;;;;;5044108;28;20091;-75
2023/09/24 05:16:50;;;;;;;8.02;4.65;;;11.10;99.90;;;;;;5040791;28;20052;-76
2023/09/24 05:19:16;;;;;;;11.63;7.10;;;11.00;99.90;;;;;;5045498;28;20061;-76
2023/09/24 05:21:42;;;;;;;9.10;5.80;;;11.00;99.90;;;;;;5040985;28;20136;-75
2023/09/24 05:24:08;;;;;;;12.65;5.88;;;11.00;99.90;;;;;;5036273;28;20132;-76
2023/09/24 05:26:34;;;;;;;11.30;5.60;;;11.00;99.90;;;;;;5041695;28;20439;-76
2023/09/24 05:28:59;;;;;;;9.15;5.32;;;11.00;99.90;;;;;;5036706;28;20045;-76
2023/09/24 05:31:26;;;;;;;10.32;6.32;;;11.10;99.90;;;;;;5042191;28;20033;-76
2023/09/24 05:33:52;;;;;;;10.40;6.00;;;11.10;99.90;;;;;;5042728;28;20055;-77
2023/09/24 05:36:18;;;;;;;12.43;6.88;;;11.00;99.90;;;;;;5025446;28;20124;-76
2023/09/24 05:38:44;;;;;;;13.45;8.82;;;11.10;99.90;;;;;;5044696;28;20453;-77
2023/09/24 05:41:10;;;;;;;11.15;6.57;;;11.00;99.90;;;;;;5072165;28;20377;-76
2023/09/24 05:43:36;;;;;;;9.70;7.10;;;11.00;99.90;;;;;;5042233;28;20052;-77
2023/09/24 05:46:01;;;;;;;11.55;7.90;;;11.10;99.90;;;;;;5041310;28;20060;-76
2023/09/24 05:48:29;;;;;;;15.18;12.10;;;11.00;99.90;;;;;;5043046;28;20544;-76
2023/09/24 05:50:55;;;;;;;13.23;9.52;;;11.10;99.90;;;;;;5042899;28;20048;-76
2023/09/24 05:53:20;;;;;;;15.77;9.85;;;11.10;99.90;;;;;;5045632;28;20045;-76
2023/09/24 05:55:54;;;;;;;17.23;11.10;;;11.10;99.90;;;;;;5043932;28;20052;-77
2023/09/24 05:58:20;;;;;;;14.15;10.88;;;11.00;99.90;;;;;;5068116;28;20056;-77
2023/09/24 06:00:47;;;;;;;13.30;9.10;;;11.10;99.90;;;;;;5056859;28;20076;-77
2023/09/24 06:03:14;;;;;;;11.32;7.38;;;11.10;99.90;;;;;;5038755;28;20102;-77
2023/09/24 06:05:40;;;;;;;15.50;9.93;;;11.00;99.90;;;;;;5044753;28;20048;-79
2023/09/24 06:08:06;;;;;;;12.80;6.97;;;11.00;99.90;;;;;;5070032;28;20040;-75
2023/09/24 06:10:34;;;;;;;15.48;7.22;;;11.00;99.90;;;;;;5046096;28;20081;-75
2023/09/24 06:13:01;;;;;;;11.55;8.00;;;11.00;99.90;;;;;;5073095;28;20048;-75
2023/09/24 06:15:26;;;;;;;13.35;6.70;;;11.00;99.90;;;;;;5036441;28;20203;-75
2023/09/24 06:17:52;;;;;;;15.45;7.63;;;11.00;99.90;;;;;;5066820;28;20124;-75
2023/09/24 06:20:18;;;;;;;16.65;7.10;;;11.00;99.90;;;;;;5042840;28;20037;-76
2023/09/24 06:22:47;;;;;;;9.57;6.82;;;11.00;99.90;;;;;;5048950;28;20075;-75
2023/09/24 06:25:13;;;;;;;14.07;6.90;;;11.00;99.90;;;;;;5047048;28;20408;-76
2023/09/24 06:27:40;;;;;;;10.68;7.20;;;11.00;99.90;;;;;;5046646;28;20045;-76
2023/09/24 06:30:08;;;;;;;15.23;8.10;;;11.00;99.90;;;;;;5048918;28;20049;-77
2023/09/24 06:32:35;;;;;;;11.35;6.97;;;11.00;99.90;;;;;;5041357;28;20056;-77
2023/09/24 06:35:01;;;;;;;15.20;6.80;;;11.00;99.90;;;;;;5050894;28;20080;-77
2023/09/24 06:37:27;;;;;;;13.02;7.68;;;11.00;99.90;;;;;;5044327;28;20138;-75
2023/09/24 06:39:57;;;;;;;14.82;8.27;;;11.00;99.90;;;;;;5049863;28;20099;-76
2023/09/24 06:42:23;;;;;;;15.90;8.05;;;11.00;99.90;;;;;;5051182;28;20095;-76
2023/09/24 06:44:53;;;;;;;14.00;7.57;;;11.10;99.90;;;;;;5052267;28;20424;-75
2023/09/24 06:47:18;;;;;;;11.98;7.30;;;11.10;99.90;;;;;;5036943;28;20045;-76
2023/09/24 06:49:48;;;;;;;14.43;7.90;;;11.10;99.90;;;;;;5045752;28;20090;-75
2023/09/24 06:52:13;;;;;;;15.00;7.90;;;11.20;99.90;;;;;;5023471;28;20052;-76
2023/09/24 06:54:39;;;;;;;12.50;7.15;;;11.20;99.90;;;;;;5040806;28;20048;-76
2023/09/24 06:57:05;;;;;;;11.82;7.40;;;11.30;99.90;;;;;;5049577;28;20124;-76
2023/09/24 06:59:33;;;;;;;15.75;7.65;;;11.30;99.90;;;;;;5044713;28;20041;-76
2023/09/24 07:01:59;;;;;;;12.75;6.85;;;11.30;99.90;;;;;;5051788;28;20132;-76
2023/09/24 07:04:25;;;;;;;14.10;7.53;;;11.30;99.90;;;;;;5037938;28;20129;-75
2023/09/24 07:06:51;;;;;;;15.10;7.53;;;11.30;99.90;;;;;;5032969;28;20053;-75
2023/09/24 07:09:19;;;;;;;16.20;8.02;;;11.40;99.90;;;;;;5032079;28;20050;-77
2023/09/24 07:11:50;;;;;;;12.27;7.05;;;11.40;99.90;;;;;;5032725;28;20524;-75
2023/09/24 07:14:19;;;;;;;13.80;7.60;;;11.50;99.90;;;;;;5032335;28;20085;-78
2023/09/24 07:16:44;;;;;;;9.95;6.90;;;11.50;99.90;;;;;;5031673;28;20406;-74
2023/09/24 07:19:10;;;;;;;11.50;7.05;;;11.50;99.90;;;;;;5031051;28;20041;-75
2023/09/24 07:21:36;;;;;;;13.50;7.43;;;11.60;99.90;;;;;;5052319;28;20072;-75
2023/09/24 07:24:02;;;;;;;15.30;7.57;;;11.60;99.90;;;;;;5052273;28;20418;-75
2023/09/24 07:26:28;;;;;;;13.15;7.88;;;11.60;99.90;;;;;;5052384;28;20132;-75
2023/09/24 07:28:54;;;;;;;13.25;6.90;;;11.70;99.90;;;;;;5035423;28;20180;-76
2023/09/24 07:31:25;;;;;;;13.35;6.57;;;11.70;99.90;;;;;;5046830;28;20468;-74
2023/09/24 07:33:53;;;;;;;13.57;7.97;;;11.70;99.90;;;;;;5072503;28;20072;-76
2023/09/24 07:36:21;;;;;;;11.13;6.53;;;11.80;99.90;;;;;;5031604;28;20060;-76
2023/09/24 07:38:46;;;;;;;13.82;7.43;;;11.80;99.90;;;;;;5042470;28;20053;-76
2023/09/24 07:41:12;;;;;;;12.50;7.70;;;11.80;99.90;;;;;;5051195;28;20179;-76
2023/09/24 07:43:40;;;;;;;11.55;7.57;;;11.90;99.90;;;;;;5019780;28;20052;-76
2023/09/24 07:46:07;;;;;;;12.30;6.63;;;11.90;99.90;;;;;;5044640;28;20041;-76
2023/09/24 07:48:33;;;;;;;12.32;7.00;;;11.90;99.90;;;;;;5037463;28;20050;-76
2023/09/24 07:50:59;;;;;;;10.95;6.82;;;11.90;99.90;;;;;;5041354;28;20052;-75
2023/09/24 07:53:24;;;;;;;14.68;7.53;;;12.00;99.90;;;;;;5041540;28;20380;-75
2023/09/24 07:55:58;;;;;;;12.88;6.30;;;12.00;99.90;;;;;;5042043;28;20045;-75
2023/09/24 07:58:24;;;;;;;16.58;7.05;;;12.00;99.90;;;;;;5042635;28;20045;-74
2023/09/24 08:00:51;;;;;;;14.63;7.07;;;12.10;99.90;;;;;;5050071;28;20045;-76
2023/09/24 08:03:17;;;;;;;11.27;6.95;;;12.20;99.90;;;;;;5045027;28;20128;-75
2023/09/24 08:05:43;;;;;;;10.30;6.18;;;12.20;99.90;;;;;;5042838;28;20227;-76
2023/09/24 08:08:08;;;;;;;10.43;5.85;;;12.20;99.90;;;;;;5046954;28;20056;-75
2023/09/24 08:10:34;;;;;;;10.70;5.82;;;12.30;99.90;;;;;;5042081;28;20053;-75
2023/09/24 08:13:03;;;;;;;12.57;6.05;;;12.30;99.90;;;;;;5048215;28;20040;-75
2023/09/24 08:15:29;;;;;;;13.45;5.95;;;12.30;99.90;;;;;;5041498;28;20534;-74
2023/09/24 08:17:55;;;;;;;12.13;5.82;;;12.40;99.90;;;;;;5043278;28;20420;-75
2023/09/24 08:20:20;;;;;;;14.40;5.45;;;12.40;99.90;;;;;;5042401;28;20045;-76
2023/09/24 08:22:46;;;;;;;10.93;5.95;;;12.50;99.90;;;;;;5047854;28;20203;-75
2023/09/24 08:25:12;;;;;;;13.13;5.65;;;12.60;99.90;;;;;;5052924;28;20059;-80
2023/09/24 08:27:37;;;;;;;11.50;5.45;;;12.60;99.90;;;;;;5048583;28;20554;-75
2023/09/24 08:30:06;;;;;;;11.32;4.72;;;12.70;99.90;;;;;;5052405;28;20068;-75
2023/09/24 08:32:32;;;;;;;11.00;4.72;;;12.70;99.90;;;;;;5046029;28;20128;-77
2023/09/24 08:34:59;;;;;;;10.75;5.13;;;12.80;99.90;;;;;;5048769;28;20136;-76
2023/09/24 08:37:25;;;;;;;12.05;4.55;;;12.80;99.90;;;;;;5054943;28;20052;-75
2023/09/24 08:39:51;;;;;;;15.63;5.25;;;12.90;99.90;;;;;;5053591;28;20049;-76
2023/09/24 08:42:20;;;;;;;12.55;4.22;;;12.90;99.90;;;;;;5048961;28;20362;-76
2023/09/24 08:45:09;;;;;;;9.60;4.22;;;13.00;99.90;;;;;;5038778;28;20471;-77
2023/09/24 08:47:36;;;;;;;13.05;4.82;;;13.00;99.90;;;;;;5046929;28;20171;-75
2023/09/24 08:50:03;;;;;;;9.82;4.47;;;13.10;99.90;;;;;;5065050;28;20855;-76
2023/09/24 08:52:38;;;;;;;10.93;3.75;;;13.10;99.90;;;;;;5038549;28;20142;-76
2023/09/24 08:55:12;;;;;;;10.43;4.13;;;13.20;99.90;;;;;;5044394;28;20080;-78
2023/09/24 08:57:38;;;;;;;7.68;4.03;;;13.20;99.90;;;;;;5048616;28;20489;-75
2023/09/24 09:00:06;;;;;;;12.63;4.10;;;13.30;99.90;;;;;;5040780;28;20049;-75
2023/09/24 09:02:35;;;;;;;14.15;4.65;;;13.30;99.90;;;;;;5067144;28;20053;-79
2023/09/24 09:05:09;;;;;;;9.23;4.35;;;13.40;99.90;;;;;;5042592;28;20087;-78
2023/09/24 09:07:35;;;;;;;15.23;3.75;;;13.50;99.90;;;;;;5035710;28;20426;-80
2023/09/24 09:10:03;;;;;;;8.93;3.97;;;13.60;99.90;;;;;;5047376;28;20049;-76
2023/09/24 09:12:29;;;;;;;7.95;3.63;;;13.70;99.90;;;;;;5054529;28;20045;-78
2023/09/24 09:14:56;;;;;;;8.98;4.07;;;13.80;99.90;;;;;;5041577;28;20091;-77
2023/09/24 09:17:23;;;;;;;10.27;3.90;;;13.90;99.90;;;;;;5042315;28;20045;-77
2023/09/24 09:19:56;;;;;;;7.72;3.88;;;14.20;99.90;;;;;;5065821;28;20056;-77
2023/09/24 09:22:29;;;;;;;13.88;3.55;;;14.40;99.90;;;;;;5043791;28;20563;-78
2023/09/24 09:25:09;;;;;;;9.05;3.38;;;14.60;99.90;;;;;;5044651;28;20043;-77
2023/09/24 09:27:37;;;;;;;10.98;3.42;;;14.70;99.90;;;;;;5021567;28;20493;-78
2023/09/24 09:30:17;;;;;;;11.48;4.25;;;14.90;99.90;;;;;;5040057;28;20499;-78
2023/09/24 09:32:46;;;;;;;8.88;3.30;;;15.00;99.90;;;;;;5044552;28;20049;-78
2023/09/24 09:35:16;;;;;;;8.63;2.60;;;15.10;99.90;;;;;;5025823;28;20064;-76
2023/09/24 09:37:43;;;;;;;8.43;3.13;;;15.30;99.90;;;;;;5034131;28;20080;-77
2023/09/24 09:40:10;;;;;;;8.40;3.03;;;15.40;99.90;;;;;;5041275;28;20045;-78
2023/09/24 09:42:37;;;;;;;8.82;3.00;;;15.50;99.90;;;;;;5030926;28;20049;-77
2023/09/24 09:45:08;;;;;;;6.50;2.55;;;15.70;99.90;;;;;;5040003;28;20037;-75
2023/09/24 09:47:55;;;;;;;7.93;3.00;;;15.80;99.90;;;;;;5028910;28;20402;-78
2023/09/24 09:50:23;;;;;;;6.60;2.97;;;15.90;99.90;;;;;;5036118;28;20063;-76
2023/09/24 09:52:54;;;;;;;9.38;3.33;;;16.00;99.90;;;;;;5043234;28;20072;-78
2023/09/24 09:55:20;;;;;;;8.02;3.10;;;16.10;99.90;;;;;;5040260;28;20049;-77
2023/09/24 09:57:47;;;;;;;7.63;3.13;;;16.20;99.90;;;;;;5036845;28;20045;-76
2023/09/24 10:00:16;;;;;;;7.75;2.58;;;16.30;99.90;;;;;;5037478;28;20049;-77
2023/09/24 10:02:43;;;;;;;8.05;2.33;;;16.50;99.90;;;;;;5027399;28;20080;-79
2023/09/24 10:05:13;;;;;;;6.97;1.90;;;16.60;99.90;;;;;;5043373;28;20060;-80
2023/09/24 10:07:39;;;;;;;6.00;1.98;;;16.70;99.90;;;;;;5041486;28;20056;-80
2023/09/24 10:10:34;;;;;;;8.02;2.50;;;16.80;99.90;;;;;;5041820;28;20187;-80
2023/09/24 10:13:01;;;;;;;;;;;16.90;99.90;;;;;;5043748;28;20094;-77
2023/09/24 10:15:29;;;;;;;10.52;2.20;;;17.00;99.90;;;;;;5040080;28;20031;-79
2023/09/24 10:18:08;;;;;;;6.35;1.58;;;17.10;99.90;;;;;;5042928;28;20052;-79
2023/09/24 10:20:48;;;;;;;7.18;2.00;;;17.10;99.90;;;;;;5041352;28;20064;-78
2023/09/24 10:23:29;;;;;;;4.82;1.17;;;17.20;99.90;;;;;;5041209;28;20452;-77
2023/09/24 10:26:00;;;;;;;6.25;2.05;;;17.30;99.90;;;;;;5040797;28;20045;-78
2023/09/24 10:28:48;;;;;;;9.43;1.70;;;17.40;99.90;;;;;;5041410;28;20080;-78
2023/09/24 10:31:16;;;;;;;6.78;1.50;;;17.40;99.90;;;;;;5045903;28;20048;-78
2023/09/24 10:33:58;;;;;;;7.40;1.88;;;17.40;99.90;;;;;;5043075;28;20133;-79
2023/09/24 10:36:29;;;;;;;7.35;1.67;;;17.50;99.90;;;;;;5043847;28;20194;-80
2023/09/24 10:39:08;;;;;;;5.82;1.90;;;17.60;99.90;;;;;;5044502;28;20052;-79
2023/09/24 10:41:35;;;;;;;5.45;1.58;;;17.70;99.90;;;;;;5041109;28;20045;-82
2023/09/24 10:44:27;;;;;;;6.25;2.08;;;17.80;99.90;;;;;;5041336;28;20044;-78
2023/09/24 10:46:53;;;;;;;5.50;2.00;;;18.00;99.90;;;;;;5041073;28;20052;-77
2023/09/24 10:49:24;;;;;;;6.50;1.92;;;18.00;99.90;;;;;;5049375;28;20467;-77
2023/09/24 10:52:00;;;;;;;8.68;2.03;;;18.10;99.90;;;;;;5041538;28;20037;-76
2023/09/24 10:54:25;;;;;;;6.15;2.20;;;18.10;99.90;;;;;;5055649;28;20434;-77
2023/09/24 10:56:51;;;;;;;7.22;1.58;;;18.10;99.90;;;;;;5041188;28;20120;-77
2023/09/24 10:59:30;;;;;;;7.57;2.05;;;18.10;99.90;;;;;;5044268;28;20084;-76
2023/09/24 11:01:56;;;;;;;5.03;1.75;;;18.20;99.90;;;;;;5037014;28;20049;-78
2023/09/24 11:04:26;;;;;;;7.40;1.95;;;18.20;99.90;;;;;;5040828;28;20368;-78
2023/09/24 11:06:51;;;;;;;5.43;1.70;;;18.30;99.90;;;;;;5035782;28;20084;-74
2023/09/24 11:09:21;;;;;;;6.82;2.17;;;18.40;99.90;;;;;;5040676;28;20049;-77
2023/09/24 11:11:47;;;;;;;7.57;1.92;;;18.50;99.90;;;;;;5044298;28;20041;-77
2023/09/24 11:14:22;;;;;;;9.73;2.40;;;18.60;99.90;;;;;;5040285;28;20125;-77
2023/09/24 11:16:53;;;;;;;5.63;1.60;;;18.60;99.90;;;;;;5034749;28;20056;-75
2023/09/24 11:19:42;;;;;;;9.32;2.35;;;18.60;99.90;;;;;;5030426;28;20581;-77
2023/09/24 11:22:19;;;;;;;6.63;1.85;;;18.70;99.90;;;;;;5031788;28;20084;-76
2023/09/24 11:24:46;;;;;;;6.82;1.70;;;18.70;99.90;;;;;;5031639;28;20046;-76
2023/09/24 11:27:11;;;;;;;4.65;2.00;;;18.70;99.90;;;;;;5050171;28;20053;-77
2023/09/24 11:29:37;;;;;;;7.15;1.48;;;18.80;99.90;;;;;;5052172;28;20404;-77
2023/09/24 11:32:03;;;;;;;5.60;1.42;;;18.80;99.90;;;;;;5042648;28;20049;-76
2023/09/24 11:34:29;;;;;;;4.63;1.65;;;18.90;99.90;;;;;;5043101;28;20170;-77
2023/09/24 11:36:56;;;;;;;6.97;1.67;;;18.90;99.90;;;;;;5051629;28;20049;-76
2023/09/24 11:39:22;;;;;;;4.75;1.35;;;19.10;99.90;;;;;;5051914;28;20049;-76
2023/09/24 11:41:49;;;;;;;4.53;1.40;;;19.20;99.90;;;;;;5051766;28;20056;-76
2023/09/24 11:44:16;;;;;;;5.85;1.45;;;19.20;99.90;;;;;;5051741;28;20037;-76
2023/09/24 11:46:46;;;;;;;6.45;1.33;;;19.30;99.90;;;;;;5051329;28;20048;-76
2023/09/24 11:49:12;;;;;;;7.30;1.58;;;19.40;99.90;;;;;;5042722;28;20590;-76
2023/09/24 11:51:38;;;;;;;4.80;1.10;;;19.50;99.90;;;;;;5051856;28;20081;-76
2023/09/24 11:54:04;;;;;;;5.22;1.23;;;19.40;99.90;;;;;;5051118;28;20507;-76
2023/09/24 11:56:31;;;;;;;4.80;1.13;;;19.40;99.90;;;;;;5051497;28;20044;-76
2023/09/24 11:58:59;;;;;;;4.13;1.25;;;19.40;99.90;;;;;;5051895;28;20049;-76
2023/09/24 12:01:25;;;;;;;6.32;1.40;;;19.50;99.90;;;;;;5051736;28;20049;-76
2023/09/24 12:03:53;;;;;;;5.32;1.52;;;19.60;99.90;;;;;;5051895;28;20052;-76
2023/09/24 12:06:19;;;;;;;5.00;1.23;;;19.70;99.90;;;;;;5050548;28;20094;-76
2023/09/24 12:08:45;;;;;;;5.03;1.38;;;19.70;99.90;;;;;;5051624;28;20377;-75
2023/09/24 12:11:10;;;;;;;6.32;1.48;;;19.80;99.90;;;;;;5051500;28;20171;-76
2023/09/24 12:13:36;;;;;;;4.57;1.33;;;19.80;99.90;;;;;;5051113;28;20099;-76
2023/09/24 12:16:02;;;;;;;4.10;1.00;;;19.80;99.90;;;;;;5046661;28;20126;-76
2023/09/24 12:18:28;;;;;;;5.25;1.27;;;19.70;99.90;;;;;;5031808;28;20236;-76
2023/09/24 12:20:54;;;;;;;3.55;1.05;;;19.70;99.90;;;;;;5040410;28;20041;-76
2023/09/24 12:23:20;;;;;;;6.45;1.42;;;19.70;99.90;;;;;;5050781;28;20053;-76
2023/09/24 12:25:46;;;;;;;5.45;1.35;;;19.80;99.90;;;;;;5046209;28;20478;-76
2023/09/24 12:28:16;;;;;;;4.18;1.25;;;19.80;99.90;;;;;;5050941;28;20052;-76
2023/09/24 12:30:43;;;;;;;6.75;1.25;;;19.80;99.90;;;;;;5051369;28;20496;-76
2023/09/24 12:33:09;;;;;;;5.75;1.30;;;19.90;99.90;;;;;;5051609;28;20451;-76
2023/09/24 12:35:37;;;;;;;5.90;1.17;;;19.90;99.90;;;;;;5049676;28;20068;-75
2023/09/24 12:38:03;;;;;;;5.13;1.00;;;20.10;99.90;;;;;;5051341;28;20132;-76
2023/09/24 12:40:29;;;;;;;6.32;1.42;;;20.20;99.90;;;;;;5038858;28;20132;-76
2023/09/24 12:42:54;;;;;;;5.70;1.27;;;20.20;99.90;;;;;;5032829;28;20060;-75
2023/09/24 12:45:21;;;;;;;3.80;0.88;;;20.30;99.90;;;;;;5036127;28;20088;-76
2023/09/24 12:47:46;;;;;;;4.72;1.10;;;20.40;99.90;;;;;;5055102;28;20045;-75